Cincinnati, OH

11:25 PM EST on December 07, 2016 (GMT -0500)
Norwood | | Change Station

Elev 620 ft 39.15 °N, 84.45 °W | Updated 17 seconds ago

Overcast
Overcast
35.0 °F
Feels Like 35 °F
N
3.0
Wind Variable Wind from West

Today
High -- | Low -- °F
--% Chance of Precip.
Yesterday
High -- | Low -- °F
Precip. -- in
Pressure 30.20 in
Visibility 10.0 miles
Clouds Overcast 10000 ft
Windchill 35 °F
Dew Point 24 °F
Humidity 65%
Rainfall --
Snow Depth Not available.
7:44 AM 5:14 PM
First Quarter, 59% visible
METAR KLUK 080353Z 27008KT 10SM OVC100 02/M04 A3019 RMK AO2 SLP225 T00221044
Pressure 30.20 in
Visibility 10.0 miles
Clouds Overcast 10000 ft
Windchill 35 °F
Dew Point 24 °F
Humidity 65%
Rainfall --
Snow Depth Not available.
7:44 AM 5:14 PM
First Quarter, 59% visible
METAR KLUK 080353Z 27008KT 10SM OVC100 02/M04 A3019 RMK AO2 SLP225 T00221044

10-Day Weather Forecast

Almanac

Astronomy

Dec. 07, 2016 Rise Set
Actual Time
Civil Twilight
Nautical Twilight
Astronomical Twilight
Moon
Length of Visible Light
Length of Day
Tomorrow will be .
, % of the Moon is Illuminated

Today's Extremes

State Highs State Lows

Community

WunderPhotos

Upload Photos

1,956,259 photos uploaded!

WunderBlog® & News

Nearby

Air Quality

  Air Quality AQ Index Pollutant
Not available.

Snow Depth

Station Depth Elevation

Earthquake Activity

City Distance Mag. Time & Date
Minimum magnitude displayed is 2.5.

Coastal Water Temperatures

Place Temperature

Stations

Nearby Weather Stations

Station Location Temp. Windchill Dew Point Humidity Wind Precip. Elev Updated Type
                   

Watches & Warnings

There are currently no watches in effect.